createdAt,value
2022-12-25T00:00:36.590Z,16.90
2022-12-25T00:03:04.971Z,19.05
2022-12-25T00:05:35.647Z,14.27
2022-12-25T00:08:04.093Z,19.60
2022-12-25T00:10:37.514Z,17.70
2022-12-25T00:13:16.672Z,22.73
2022-12-25T00:15:45.015Z,19.83
2022-12-25T00:18:15.458Z,20.05
2022-12-25T00:20:44.287Z,14.32
2022-12-25T00:23:12.505Z,19.85
2022-12-25T00:25:41.167Z,14.75
2022-12-25T00:28:11.137Z,15.50
2022-12-25T00:30:41.116Z,16.35
2022-12-25T00:33:09.694Z,13.73
2022-12-25T00:35:38.106Z,16.50
2022-12-25T00:38:06.430Z,13.23
2022-12-25T00:40:34.762Z,20.10
2022-12-25T00:43:03.037Z,22.88
2022-12-25T00:45:31.337Z,18.85
2022-12-25T00:48:01.424Z,15.57
2022-12-25T00:50:29.901Z,16.75
2022-12-25T00:52:58.111Z,16.42
2022-12-25T00:55:26.433Z,17.88
2022-12-25T00:57:54.809Z,14.52
2022-12-25T01:00:25.364Z,19.77
2022-12-25T01:02:53.854Z,15.63
2022-12-25T01:05:25.654Z,17.40
2022-12-25T01:07:53.877Z,15.13
2022-12-25T01:10:24.609Z,15.38
2022-12-25T01:12:53.294Z,18.75
2022-12-25T01:15:21.591Z,16.98
2022-12-25T01:17:49.991Z,11.57
2022-12-25T01:20:18.967Z,15.82
2022-12-25T01:22:48.988Z,17.85
2022-12-25T01:25:19.711Z,15.70
2022-12-25T01:27:50.310Z,17.48
2022-12-25T01:30:19.130Z,18.60
2022-12-25T01:32:47.828Z,16.77
2022-12-25T01:35:16.474Z,16.60
2022-12-25T01:37:44.981Z,18.30
2022-12-25T01:40:14.869Z,20.50
2022-12-25T01:42:45.262Z,16.15
2022-12-25T01:45:28.519Z,13.93
2022-12-25T01:47:56.836Z,14.00
2022-12-25T01:50:25.471Z,17.80
2022-12-25T01:52:54.378Z,20.27
2022-12-25T01:55:24.347Z,12.10
2022-12-25T01:57:52.875Z,11.00
2022-12-25T02:00:21.349Z,24.77
2022-12-25T02:02:50.173Z,13.57
2022-12-25T02:05:23.535Z,16.50
2022-12-25T02:07:52.102Z,17.48
2022-12-25T02:10:20.808Z,17.92
2022-12-25T02:12:50.601Z,17.73
2022-12-25T02:15:19.748Z,18.48
2022-12-25T02:17:52.274Z,13.48
2022-12-25T02:20:31.840Z,19.60
2022-12-25T02:23:06.075Z,16.77
2022-12-25T02:25:39.882Z,15.90
2022-12-25T02:28:17.656Z,13.77
2022-12-25T02:30:47.990Z,15.85
2022-12-25T02:33:38.433Z,15.85
2022-12-25T02:36:09.135Z,20.42
2022-12-25T02:38:59.694Z,16.70
2022-12-25T02:41:31.405Z,18.95
2022-12-25T02:44:22.748Z,15.57
2022-12-25T02:47:09.120Z,19.13
2022-12-25T02:49:56.079Z,17.75
2022-12-25T02:52:47.494Z,16.85
2022-12-25T02:55:40.402Z,17.33
2022-12-25T02:58:29.166Z,22.92
2022-12-25T03:01:21.015Z,25.50
2022-12-25T03:04:17.239Z,22.30
2022-12-25T03:07:01.415Z,19.70
2022-12-25T03:10:03.787Z,22.08
2022-12-25T03:12:39.185Z,17.48
2022-12-25T03:15:29.587Z,15.75
2022-12-25T03:18:05.334Z,19.70
2022-12-25T03:20:51.347Z,17.50
2022-12-25T03:23:38.855Z,18.10
2022-12-25T03:26:24.966Z,16.27
2022-12-25T03:28:53.421Z,20.27
2022-12-25T03:31:26.510Z,17.05
2022-12-25T03:34:24.506Z,22.75
2022-12-25T03:37:14.658Z,19.52
2022-12-25T03:40:04.800Z,20.13
2022-12-25T03:42:55.718Z,17.48
2022-12-25T03:45:39.857Z,22.13
2022-12-25T03:48:31.762Z,20.35
2022-12-25T03:51:23.408Z,22.10
2022-12-25T03:54:15.443Z,16.88
2022-12-25T03:57:02.367Z,21.92
2022-12-25T03:59:48.307Z,18.20
2022-12-25T04:02:34.338Z,19.83
2022-12-25T04:05:22.075Z,14.85
2022-12-25T04:08:09.520Z,18.65
2022-12-25T04:10:55.385Z,15.52
2022-12-25T04:13:43.631Z,16.75
2022-12-25T04:16:43.983Z,18.55
2022-12-25T04:19:30.163Z,15.60
2022-12-25T04:22:15.912Z,16.70
2022-12-25T04:25:05.048Z,20.90
2022-12-25T04:27:51.243Z,20.25
2022-12-25T04:30:37.779Z,14.82
2022-12-25T04:33:23.619Z,15.35
2022-12-25T04:36:10.206Z,16.67
2022-12-25T04:38:38.702Z,15.05
2022-12-25T04:41:08.843Z,17.45
2022-12-25T04:43:37.241Z,18.38
2022-12-25T04:46:10.438Z,15.25
2022-12-25T04:48:39.216Z,21.00
2022-12-25T04:51:15.043Z,19.13
2022-12-25T04:53:43.393Z,14.65
2022-12-25T04:56:13.097Z,12.57
2022-12-25T04:58:41.581Z,15.35
2022-12-25T05:01:12.173Z,15.82
2022-12-25T05:03:41.064Z,12.02
2022-12-25T05:06:09.405Z,13.77
2022-12-25T05:08:38.069Z,11.80
2022-12-25T05:11:07.829Z,15.02
2022-12-25T05:13:37.466Z,10.93
2022-12-25T05:16:11.105Z,9.75
2022-12-25T05:18:39.644Z,8.30
2022-12-25T05:21:08.372Z,15.93
2022-12-25T05:23:38.977Z,10.40
2022-12-25T05:26:07.506Z,9.35
2022-12-25T05:28:39.714Z,12.13
2022-12-25T05:31:08.417Z,10.32
2022-12-25T05:33:37.889Z,10.23
2022-12-25T05:36:09.068Z,8.50
2022-12-25T05:38:37.426Z,7.55
2022-12-25T05:41:05.875Z,10.07
2022-12-25T05:43:34.147Z,10.98
2022-12-25T05:46:09.568Z,7.07
2022-12-25T05:48:39.217Z,10.02
2022-12-25T05:51:10.082Z,9.00
2022-12-25T05:53:38.665Z,8.02
2022-12-25T05:56:07.702Z,9.90
2022-12-25T05:58:37.000Z,5.13
2022-12-25T06:01:11.830Z,10.40
2022-12-25T06:03:40.217Z,7.95
2022-12-25T06:06:08.870Z,6.63
2022-12-25T06:08:37.328Z,11.75
2022-12-25T06:11:05.953Z,13.32
2022-12-25T06:13:34.780Z,11.00
2022-12-25T06:16:04.959Z,10.40
2022-12-25T06:18:36.073Z,8.93
2022-12-25T06:21:07.848Z,6.75
2022-12-25T06:23:40.252Z,7.60
2022-12-25T06:26:09.131Z,10.45
2022-12-25T06:28:37.558Z,8.80
2022-12-25T06:31:07.703Z,9.65
2022-12-25T06:33:37.767Z,13.32
2022-12-25T06:36:06.919Z,12.85
2022-12-25T06:38:35.650Z,10.48
2022-12-25T06:41:08.217Z,10.00
2022-12-25T06:43:36.860Z,10.27
2022-12-25T06:46:05.671Z,12.75
2022-12-25T06:48:34.102Z,9.70
2022-12-25T06:51:03.882Z,12.30
2022-12-25T06:53:40.135Z,12.18
2022-12-25T06:56:10.098Z,11.68
2022-12-25T06:58:40.295Z,14.98
2022-12-25T07:01:15.311Z,13.98
2022-12-25T07:03:45.146Z,13.18
2022-12-25T07:06:15.173Z,10.68
2022-12-25T07:08:43.444Z,13.88
2022-12-25T07:11:13.801Z,10.68
2022-12-25T07:13:42.472Z,9.00
2022-12-25T07:16:13.945Z,10.95
2022-12-25T07:18:44.981Z,13.25
2022-12-25T07:21:15.501Z,11.15
2022-12-25T07:23:44.303Z,14.98
2022-12-25T07:26:13.172Z,12.50
2022-12-25T07:28:41.434Z,14.52
2022-12-25T07:31:11.657Z,13.60
2022-12-25T07:33:41.300Z,13.25
2022-12-25T07:36:13.026Z,13.98
2022-12-25T07:38:43.323Z,12.65
2022-12-25T07:41:11.706Z,12.68
2022-12-25T07:43:39.993Z,11.75
2022-12-25T07:46:08.499Z,11.13
2022-12-25T07:48:41.630Z,11.45
2022-12-25T07:51:12.500Z,14.25
2022-12-25T07:53:44.698Z,13.43
2022-12-25T07:56:15.732Z,18.05
2022-12-25T07:58:44.245Z,12.20
2022-12-25T08:01:14.254Z,14.38
2022-12-25T08:03:42.954Z,12.13
2022-12-25T08:06:12.423Z,11.18
2022-12-25T08:08:42.084Z,11.68
2022-12-25T08:11:10.671Z,10.77
2022-12-25T08:13:40.376Z,9.68
2022-12-25T08:16:09.775Z,8.88
2022-12-25T08:18:40.274Z,8.05
2022-12-25T08:21:09.853Z,11.05
2022-12-25T08:23:39.046Z,9.50
2022-12-25T08:26:10.005Z,9.50
2022-12-25T08:28:40.019Z,11.15
2022-12-25T08:31:09.436Z,9.63
2022-12-25T08:33:40.033Z,9.48
2022-12-25T08:36:09.277Z,8.35
2022-12-25T08:38:37.858Z,9.57
2022-12-25T08:41:06.580Z,9.80
2022-12-25T08:43:34.840Z,10.98
2022-12-25T08:46:07.076Z,8.57
2022-12-25T08:48:38.994Z,7.50
2022-12-25T08:51:14.398Z,9.35
2022-12-25T08:53:42.982Z,7.15
2022-12-25T08:56:13.180Z,9.18
2022-12-25T08:58:41.604Z,9.20
2022-12-25T09:01:12.211Z,8.23
2022-12-25T09:03:43.330Z,6.47
2022-12-25T09:06:15.508Z,6.60
2022-12-25T09:08:48.610Z,8.35
2022-12-25T09:11:19.229Z,4.53
2022-12-25T09:13:47.863Z,8.23
2022-12-25T09:16:18.790Z,5.82
2022-12-25T09:18:47.352Z,10.65
2022-12-25T09:21:16.789Z,6.03
2022-12-25T09:23:47.751Z,5.65
2022-12-25T09:26:16.783Z,5.55
2022-12-25T09:28:51.336Z,10.52
2022-12-25T09:31:25.892Z,7.65
2022-12-25T09:34:04.715Z,6.75
2022-12-25T09:39:19.872Z,8.25
2022-12-25T09:41:53.486Z,5.40
2022-12-25T09:44:25.816Z,7.60
2022-12-25T09:47:04.992Z,5.20
2022-12-25T09:49:39.004Z,6.47
2022-12-25T09:52:10.163Z,10.55
2022-12-25T09:54:40.690Z,7.35
2022-12-25T09:57:11.642Z,9.02
2022-12-25T09:59:40.146Z,12.40
2022-12-25T10:02:36.414Z,5.30
2022-12-25T10:05:14.728Z,9.43
2022-12-25T10:07:47.337Z,6.80
2022-12-25T10:10:26.657Z,8.27
2022-12-25T10:13:00.883Z,8.52
2022-12-25T10:15:33.358Z,9.75
2022-12-25T10:21:05.713Z,11.07
2022-12-25T10:23:39.009Z,8.77
2022-12-25T10:26:14.965Z,7.75
2022-12-25T10:28:45.466Z,10.13
2022-12-25T10:31:20.137Z,6.15
2022-12-25T10:33:48.965Z,5.28
2022-12-25T10:36:19.906Z,14.23
2022-12-25T10:38:49.100Z,7.65
2022-12-25T10:41:32.696Z,7.38
2022-12-25T10:44:15.822Z,6.97
2022-12-25T10:46:49.467Z,7.43
2022-12-25T10:49:19.218Z,6.50
2022-12-25T10:51:49.164Z,9.77
2022-12-25T10:54:21.588Z,8.05
2022-12-25T10:56:57.088Z,8.77
2022-12-25T10:59:50.025Z,7.20
2022-12-25T11:02:19.471Z,7.15
2022-12-25T11:04:55.878Z,7.43
2022-12-25T11:07:26.986Z,7.97
2022-12-25T11:10:04.694Z,10.30
2022-12-25T11:12:40.749Z,8.63
2022-12-25T11:15:29.580Z,6.72
2022-12-25T11:17:57.871Z,8.77
2022-12-25T11:20:26.372Z,7.55
2022-12-25T11:22:56.352Z,7.03
2022-12-25T11:25:28.350Z,8.80
2022-12-25T11:28:02.888Z,7.95
2022-12-25T11:30:31.510Z,10.88
2022-12-25T11:33:02.439Z,8.68
2022-12-25T11:35:33.338Z,7.55
2022-12-25T11:38:03.172Z,10.32
2022-12-25T11:40:44.242Z,10.30
2022-12-25T11:43:14.276Z,9.05
2022-12-25T11:45:49.210Z,8.55
2022-12-25T11:48:19.079Z,7.90
2022-12-25T11:50:48.949Z,7.95
2022-12-25T11:53:21.808Z,9.52
2022-12-25T11:55:54.854Z,7.68
2022-12-25T11:58:29.530Z,8.13
2022-12-25T12:00:59.453Z,9.13
2022-12-25T12:03:29.854Z,12.55
2022-12-25T12:05:59.859Z,8.25
2022-12-25T12:08:33.347Z,8.95
2022-12-25T12:11:17.500Z,8.55
2022-12-25T12:13:52.396Z,9.23
2022-12-25T12:16:21.247Z,10.35
2022-12-25T12:18:50.815Z,7.30
2022-12-25T12:21:23.773Z,9.90
2022-12-25T12:23:55.290Z,9.07
2022-12-25T12:26:24.732Z,8.50
2022-12-25T12:28:54.536Z,9.55
2022-12-25T12:31:23.028Z,7.60
2022-12-25T12:33:58.477Z,8.45
2022-12-25T12:36:36.180Z,8.57
2022-12-25T12:39:08.880Z,7.40
2022-12-25T12:41:44.665Z,9.23
2022-12-25T12:44:15.486Z,10.43
2022-12-25T12:46:52.022Z,7.45
2022-12-25T12:49:22.994Z,7.30
2022-12-25T12:51:57.463Z,6.90
2022-12-25T12:54:30.149Z,6.60
2022-12-25T12:56:59.606Z,10.43
2022-12-25T12:59:31.050Z,8.88
2022-12-25T13:02:07.192Z,6.55
2022-12-25T13:04:50.114Z,7.43
2022-12-25T13:07:26.182Z,8.65
2022-12-25T13:10:03.593Z,10.20
2022-12-25T13:12:36.340Z,8.25
2022-12-25T13:15:05.156Z,8.57
2022-12-25T13:17:35.617Z,13.48
2022-12-25T13:20:04.063Z,14.55
2022-12-25T13:22:33.676Z,9.27
2022-12-25T13:25:05.407Z,10.52
2022-12-25T13:27:34.785Z,10.02
2022-12-25T13:30:13.071Z,9.40
2022-12-25T13:32:41.990Z,9.95
2022-12-25T13:35:14.214Z,10.77
2022-12-25T13:37:43.143Z,8.82
2022-12-25T13:40:21.484Z,8.35
2022-12-25T13:42:49.972Z,8.32
2022-12-25T13:45:25.846Z,8.75
2022-12-25T13:47:55.792Z,12.05
2022-12-25T13:50:30.223Z,11.77
2022-12-25T13:53:01.869Z,8.52
2022-12-25T13:55:31.682Z,10.63
2022-12-25T13:58:00.585Z,10.52
2022-12-25T14:00:34.533Z,11.85
2022-12-25T14:03:03.206Z,11.02
2022-12-25T14:05:39.842Z,12.57
2022-12-25T14:08:15.106Z,10.23
2022-12-25T14:10:47.791Z,7.05
2022-12-25T14:13:16.979Z,9.40
2022-12-25T14:15:47.888Z,10.43
2022-12-25T14:18:16.790Z,9.93
2022-12-25T14:20:56.815Z,11.98
2022-12-25T14:23:25.139Z,8.60
2022-12-25T14:25:54.716Z,12.00
2022-12-25T14:28:25.434Z,12.63
2022-12-25T14:30:58.284Z,9.82
2022-12-25T14:33:29.562Z,11.48
2022-12-25T14:35:58.296Z,12.73
2022-12-25T14:38:34.886Z,10.85
2022-12-25T14:41:06.192Z,11.25
2022-12-25T14:43:36.733Z,11.25
2022-12-25T14:46:07.278Z,11.43
2022-12-25T14:48:37.674Z,11.13
2022-12-25T14:51:07.967Z,11.85
2022-12-25T14:53:42.172Z,11.48
2022-12-25T14:56:17.322Z,10.02
2022-12-25T14:58:53.716Z,8.88
2022-12-25T15:01:23.645Z,9.13
2022-12-25T15:03:52.127Z,10.35
2022-12-25T15:06:22.517Z,13.23
2022-12-25T15:08:58.082Z,12.30
2022-12-25T15:11:28.114Z,10.23
2022-12-25T15:13:56.418Z,12.27
2022-12-25T15:16:26.456Z,12.80
2022-12-25T15:18:55.336Z,12.30
2022-12-25T15:21:26.927Z,13.15
2022-12-25T15:24:02.444Z,12.05
2022-12-25T15:26:33.765Z,12.38
2022-12-25T15:29:02.086Z,11.32
2022-12-25T15:31:33.826Z,10.95
2022-12-25T15:34:08.043Z,12.23
2022-12-25T15:36:36.316Z,10.85
2022-12-25T15:39:04.557Z,11.32
2022-12-25T15:41:53.656Z,10.50
2022-12-25T15:44:22.298Z,12.00
2022-12-25T15:46:52.801Z,12.25
2022-12-25T15:49:25.345Z,10.52
2022-12-25T15:51:57.057Z,13.52
2022-12-25T15:54:27.335Z,13.40
2022-12-25T15:56:58.387Z,13.70
2022-12-25T15:59:26.585Z,17.02
2022-12-25T16:01:58.719Z,16.85
2022-12-25T16:04:32.206Z,14.07
2022-12-25T16:07:00.695Z,15.85
2022-12-25T16:09:29.178Z,14.45
2022-12-25T16:11:58.718Z,13.95
2022-12-25T16:14:27.040Z,11.98
2022-12-25T16:16:55.370Z,14.90
2022-12-25T16:19:23.756Z,16.15
2022-12-25T16:21:54.145Z,15.25
2022-12-25T16:24:23.630Z,15.23
2022-12-25T16:26:53.989Z,17.05
2022-12-25T16:29:23.562Z,16.33
2022-12-25T16:31:51.826Z,15.50
2022-12-25T16:34:20.044Z,16.85
2022-12-25T16:36:51.870Z,15.73
2022-12-25T16:39:22.332Z,18.05
2022-12-25T16:41:50.559Z,18.33
2022-12-25T16:44:19.009Z,15.85
2022-12-25T16:46:51.812Z,14.10
2022-12-25T16:49:20.303Z,14.23
2022-12-25T16:51:48.761Z,16.80
2022-12-25T16:54:18.164Z,14.25
2022-12-25T16:56:46.784Z,16.00
2022-12-25T16:59:15.371Z,12.98
2022-12-25T17:01:43.829Z,14.48
2022-12-25T17:04:19.937Z,16.38
2022-12-25T17:06:57.478Z,15.45
2022-12-25T17:09:25.745Z,18.45
2022-12-25T17:11:58.379Z,16.98
2022-12-25T17:14:35.763Z,15.63
2022-12-25T17:17:24.786Z,19.27
2022-12-25T17:19:54.422Z,23.38
2022-12-25T17:22:25.640Z,18.98
2022-12-25T17:24:55.844Z,19.75
2022-12-25T17:27:29.745Z,23.40
2022-12-25T17:30:02.774Z,20.00
2022-12-25T17:32:33.054Z,24.13
2022-12-25T17:35:04.632Z,20.25
2022-12-25T17:37:45.266Z,24.85
2022-12-25T17:40:14.333Z,19.98
2022-12-25T17:42:44.577Z,21.45
2022-12-25T17:45:51.384Z,20.65
2022-12-25T17:48:54.689Z,17.83
2022-12-25T17:51:27.877Z,18.55
2022-12-25T17:54:15.742Z,18.17
2022-12-25T17:59:48.715Z,18.40
2022-12-25T18:02:21.682Z,17.33
2022-12-25T18:04:52.880Z,21.13
2022-12-25T18:07:25.545Z,17.65
2022-12-25T18:09:56.087Z,22.13
2022-12-25T18:12:24.345Z,19.95
2022-12-25T18:14:52.721Z,22.83
2022-12-25T18:17:29.520Z,20.05
2022-12-25T18:20:39.884Z,21.25
2022-12-25T18:23:29.101Z,22.95
2022-12-25T18:26:06.723Z,23.05
2022-12-25T18:28:52.034Z,19.95
2022-12-25T18:31:21.565Z,19.45
2022-12-25T18:33:57.409Z,21.13
2022-12-25T18:36:29.742Z,21.67
2022-12-25T18:38:59.465Z,18.67
2022-12-25T18:41:30.363Z,19.20
2022-12-25T18:43:59.636Z,19.83
2022-12-25T18:46:32.665Z,20.38
2022-12-25T18:49:03.489Z,18.60
2022-12-25T18:51:36.891Z,22.73
2022-12-25T18:54:07.030Z,22.98
2022-12-25T18:56:35.756Z,25.13
2022-12-25T18:59:07.709Z,23.80
2022-12-25T19:01:36.081Z,21.15
2022-12-25T19:04:10.610Z,23.27
2022-12-25T19:06:39.002Z,20.27
2022-12-25T19:09:12.217Z,21.60
2022-12-25T19:11:46.338Z,20.42
2022-12-25T19:14:15.424Z,18.77
2022-12-25T19:16:45.854Z,17.55
2022-12-25T19:19:14.235Z,19.45
2022-12-25T19:21:42.552Z,19.80
2022-12-25T19:24:12.605Z,17.38
2022-12-25T19:26:43.832Z,23.05
2022-12-25T19:29:15.082Z,21.20
2022-12-25T19:31:43.806Z,19.70
2022-12-25T19:34:12.311Z,18.38
2022-12-25T19:36:41.022Z,22.15
2022-12-25T19:39:10.134Z,20.85
2022-12-25T19:41:39.827Z,24.52
2022-12-25T19:44:10.974Z,20.60
2022-12-25T19:46:44.414Z,22.05
2022-12-25T19:49:15.093Z,24.85
2022-12-25T19:51:44.199Z,25.75
2022-12-25T19:54:13.923Z,22.58
2022-12-25T19:56:44.286Z,22.08
2022-12-25T19:59:14.576Z,23.70
2022-12-25T20:01:43.297Z,21.50
2022-12-25T20:04:12.333Z,22.55
2022-12-25T20:06:44.823Z,28.83
2022-12-25T20:09:14.972Z,21.92
2022-12-25T20:11:44.974Z,24.92
2022-12-25T20:14:15.140Z,24.52
2022-12-25T20:16:47.826Z,25.33
2022-12-25T20:19:18.764Z,25.23
2022-12-25T20:21:47.834Z,26.25
2022-12-25T20:24:16.016Z,24.27
2022-12-25T20:26:47.929Z,23.42
2022-12-25T20:29:17.092Z,24.38
2022-12-25T20:31:45.380Z,23.20
2022-12-25T20:34:13.738Z,24.65
2022-12-25T20:36:45.323Z,25.60
2022-12-25T20:39:14.549Z,23.60
2022-12-25T20:41:48.824Z,26.20
2022-12-25T20:44:19.688Z,24.45
2022-12-25T20:46:48.097Z,23.80
2022-12-25T20:49:16.617Z,24.17
2022-12-25T20:51:45.022Z,24.60
2022-12-25T20:54:16.489Z,20.83
2022-12-25T20:56:44.976Z,21.65
2022-12-25T20:59:13.277Z,20.70
2022-12-25T21:01:43.772Z,19.05
2022-12-25T21:04:16.237Z,21.52
2022-12-25T21:06:45.118Z,22.40
2022-12-25T21:09:16.693Z,20.40
2022-12-25T21:11:48.233Z,19.42
2022-12-25T21:14:16.740Z,22.17
2022-12-25T21:16:50.014Z,19.25
2022-12-25T21:19:18.901Z,20.05
2022-12-25T21:21:49.827Z,24.13
2022-12-25T21:24:18.074Z,21.17
2022-12-25T21:26:48.435Z,18.58
2022-12-25T21:29:17.803Z,17.77
2022-12-25T21:32:05.455Z,18.27
2022-12-25T21:34:33.779Z,18.48
2022-12-25T21:37:02.132Z,18.27
2022-12-25T21:39:30.439Z,17.33
2022-12-25T21:41:59.475Z,19.52
2022-12-25T21:44:27.727Z,17.88
2022-12-25T21:46:57.486Z,16.30
2022-12-25T21:49:43.746Z,16.42
2022-12-25T21:52:12.228Z,16.48
2022-12-25T21:54:42.675Z,15.73
2022-12-25T21:57:10.967Z,19.02
2022-12-25T21:59:39.264Z,15.25
2022-12-25T22:02:11.896Z,14.48
2022-12-25T22:04:40.762Z,12.77
2022-12-25T22:07:28.798Z,14.35
2022-12-25T22:09:59.057Z,14.48
2022-12-25T22:12:58.487Z,13.20
2022-12-25T22:15:46.546Z,15.20
2022-12-25T22:18:34.138Z,14.55
2022-12-25T22:21:06.454Z,14.27
2022-12-25T22:23:34.806Z,11.00
2022-12-25T22:26:08.276Z,13.25
2022-12-25T22:28:37.675Z,14.30
2022-12-25T22:31:06.288Z,11.98
2022-12-25T22:33:36.003Z,12.45
2022-12-25T22:36:10.705Z,13.13
2022-12-25T22:38:41.218Z,11.52
2022-12-25T22:41:11.557Z,12.07
2022-12-25T22:44:15.064Z,12.10
2022-12-25T22:46:28.304Z,11.00
2022-12-25T22:49:00.325Z,11.20
2022-12-25T22:51:28.636Z,11.95
2022-12-25T22:54:03.297Z,14.38
2022-12-25T22:56:31.950Z,11.15
2022-12-25T22:59:00.520Z,10.52
2022-12-25T23:01:28.802Z,11.27
2022-12-25T23:03:58.616Z,12.93
2022-12-25T23:06:29.058Z,14.32
2022-12-25T23:08:57.601Z,13.70
2022-12-25T23:11:25.881Z,13.63
2022-12-25T23:14:11.894Z,12.65
2022-12-25T23:16:40.138Z,13.23
2022-12-25T23:19:30.131Z,11.70
2022-12-25T23:22:15.953Z,12.80
2022-12-25T23:25:02.227Z,14.13
2022-12-25T23:27:32.756Z,14.05
2022-12-25T23:30:00.040Z,15.52
2022-12-25T23:32:30.554Z,16.83
2022-12-25T23:35:00.377Z,14.05
2022-12-25T23:37:32.183Z,14.60
2022-12-25T23:40:00.948Z,15.30
2022-12-25T23:42:29.384Z,14.27
2022-12-25T23:44:57.959Z,16.08
2022-12-25T23:47:28.125Z,14.68
2022-12-25T23:49:56.438Z,14.23
2022-12-25T23:52:26.268Z,16.92
2022-12-25T23:54:54.527Z,15.20
2022-12-25T23:57:23.009Z,20.15
2022-12-25T23:59:59.841Z,18.23
